createdAt,value
2018-02-27T00:00:28.471Z,31.70
2018-02-27T00:02:54.266Z,31.48
2018-02-27T00:05:20.059Z,31.93
2018-02-27T00:07:45.895Z,31.76
2018-02-27T00:10:11.695Z,31.70
2018-02-27T00:12:37.533Z,31.42
2018-02-27T00:15:03.368Z,31.52
2018-02-27T00:17:29.192Z,31.47
2018-02-27T00:19:55.027Z,31.09
2018-02-27T00:22:20.886Z,31.23
2018-02-27T00:24:46.688Z,31.19
2018-02-27T00:27:12.482Z,31.54
2018-02-27T00:29:38.324Z,31.42
2018-02-27T00:32:04.131Z,31.42
2018-02-27T00:34:29.966Z,31.41
2018-02-27T00:36:55.791Z,31.42
2018-02-27T00:39:21.576Z,31.96
2018-02-27T00:41:47.391Z,31.24
2018-02-27T00:44:13.203Z,31.60
2018-02-27T00:46:39.055Z,31.17
2018-02-27T00:49:04.862Z,31.17
2018-02-27T00:51:30.664Z,30.89
2018-02-27T00:53:56.476Z,31.17
2018-02-27T00:56:22.278Z,31.01
2018-02-27T00:58:48.085Z,31.66
2018-02-27T01:01:13.898Z,31.42
2018-02-27T01:03:39.702Z,31.15
2018-02-27T01:06:05.510Z,31.32
2018-02-27T01:08:31.314Z,31.27
2018-02-27T01:10:57.150Z,31.21
2018-02-27T01:13:22.973Z,31.65
2018-02-27T01:15:48.777Z,31.59
2018-02-27T01:18:14.582Z,32.20
2018-02-27T01:20:40.386Z,31.96
2018-02-27T01:23:06.180Z,32.55
2018-02-27T01:25:31.986Z,32.87
2018-02-27T01:27:57.793Z,32.93
2018-02-27T01:30:23.637Z,32.38
2018-02-27T01:32:49.430Z,32.10
2018-02-27T01:35:15.310Z,32.49
2018-02-27T01:37:41.119Z,32.10
2018-02-27T01:40:06.926Z,31.60
2018-02-27T01:42:32.726Z,32.04
2018-02-27T01:44:58.535Z,31.88
2018-02-27T01:47:24.329Z,31.62
2018-02-27T01:49:50.122Z,31.86
2018-02-27T01:52:15.928Z,31.78
2018-02-27T01:54:41.739Z,32.19
2018-02-27T01:57:07.529Z,32.60
2018-02-27T01:59:33.363Z,32.71
2018-02-27T02:01:59.194Z,32.22
2018-02-27T02:04:24.998Z,31.71
2018-02-27T02:06:50.834Z,32.65
2018-02-27T02:09:23.630Z,32.35
2018-02-27T02:11:49.422Z,32.78
2018-02-27T02:14:15.226Z,32.89
2018-02-27T02:16:41.052Z,32.38
2018-02-27T02:19:06.849Z,32.16
2018-02-27T02:21:32.672Z,32.12
2018-02-27T02:23:58.519Z,31.85
2018-02-27T02:26:24.315Z,31.58
2018-02-27T02:28:50.117Z,31.63
2018-02-27T02:31:15.961Z,31.30
2018-02-27T02:33:41.769Z,31.46
2018-02-27T02:36:08.384Z,31.63
2018-02-27T02:38:34.188Z,31.41
2018-02-27T02:41:00.041Z,31.89
2018-02-27T02:43:25.838Z,31.95
2018-02-27T02:45:51.633Z,32.04
2018-02-27T02:48:17.434Z,32.95
2018-02-27T02:50:43.240Z,32.69
2018-02-27T02:53:09.032Z,33.16
2018-02-27T02:55:34.841Z,32.69
2018-02-27T02:58:00.638Z,33.36
2018-02-27T03:00:26.430Z,33.57
2018-02-27T03:02:52.237Z,33.16
2018-02-27T03:05:18.074Z,32.85
2018-02-27T03:07:43.869Z,32.12
2018-02-27T03:10:09.669Z,31.71
2018-02-27T03:12:35.468Z,32.28
2018-02-27T03:15:01.273Z,32.46
2018-02-27T03:17:27.104Z,32.79
2018-02-27T03:19:52.907Z,32.20
2018-02-27T03:22:18.692Z,32.11
2018-02-27T03:24:44.483Z,31.53
2018-02-27T03:27:11.265Z,31.25
2018-02-27T03:29:37.051Z,31.18
2018-02-27T03:32:02.852Z,31.27
2018-02-27T03:34:28.655Z,31.06
2018-02-27T03:36:55.414Z,31.05
2018-02-27T03:39:22.135Z,31.08
2018-02-27T03:41:47.939Z,30.90
2018-02-27T03:44:13.773Z,31.17
2018-02-27T03:46:40.413Z,31.22
2018-02-27T03:49:06.289Z,30.86
2018-02-27T03:51:33.082Z,31.41
2018-02-27T03:53:58.925Z,30.82
2018-02-27T03:56:25.659Z,30.85
2018-02-27T03:58:52.426Z,30.86
2018-02-27T04:01:19.237Z,31.16
2018-02-27T04:03:45.042Z,31.27
2018-02-27T04:06:11.857Z,31.18
2018-02-27T04:08:38.665Z,31.16
2018-02-27T04:11:04.504Z,31.44
2018-02-27T04:13:30.329Z,31.17
2018-02-27T04:15:56.962Z,31.21
2018-02-27T04:18:23.594Z,30.80
2018-02-27T04:20:49.393Z,30.96
2018-02-27T04:23:17.074Z,31.19
2018-02-27T04:25:42.867Z,31.34
2018-02-27T04:28:09.674Z,31.07
2018-02-27T04:30:35.476Z,31.03
2018-02-27T04:33:01.431Z,31.16
2018-02-27T04:35:27.227Z,31.24
2018-02-27T04:37:54.086Z,31.28
2018-02-27T04:40:19.890Z,30.82
2018-02-27T04:42:45.703Z,31.37
2018-02-27T04:45:12.451Z,30.82
2018-02-27T04:47:38.246Z,30.78
2018-02-27T04:50:04.040Z,30.81
2018-02-27T04:52:29.844Z,30.61
2018-02-27T04:54:56.547Z,31.36
2018-02-27T04:57:22.378Z,30.99
2018-02-27T04:59:48.222Z,31.00
2018-02-27T05:02:14.018Z,30.80
2018-02-27T05:04:39.875Z,30.87
2018-02-27T05:07:05.670Z,31.14
2018-02-27T05:09:31.471Z,32.69
2018-02-27T05:11:58.139Z,32.80
2018-02-27T05:14:23.946Z,33.27
2018-02-27T05:16:49.751Z,32.60
2018-02-27T05:19:15.559Z,32.28
2018-02-27T05:21:41.357Z,31.60
2018-02-27T05:24:07.145Z,31.71
2018-02-27T05:26:32.946Z,30.93
2018-02-27T05:28:58.934Z,30.90
2018-02-27T05:31:25.727Z,31.22
2018-02-27T05:33:51.528Z,31.08
2018-02-27T05:36:17.353Z,30.86
2018-02-27T05:38:43.671Z,30.96
2018-02-27T05:41:10.430Z,31.03
2018-02-27T05:43:37.194Z,31.14
2018-02-27T05:46:03.779Z,30.76
2018-02-27T05:48:29.562Z,30.50
2018-02-27T05:50:55.363Z,30.74
2018-02-27T05:53:22.156Z,30.93
2018-02-27T05:55:48.932Z,30.71
2018-02-27T05:58:14.732Z,30.58
2018-02-27T06:00:40.529Z,30.60
2018-02-27T06:03:06.331Z,30.71
2018-02-27T06:05:32.122Z,30.92
2018-02-27T06:07:59.014Z,30.99
2018-02-27T06:10:24.808Z,30.63
2018-02-27T06:12:50.645Z,30.52
2018-02-27T06:15:16.432Z,30.71
2018-02-27T06:17:43.070Z,30.64
2018-02-27T06:20:08.871Z,30.79
2018-02-27T06:22:34.719Z,31.19
2018-02-27T06:25:00.547Z,30.69
2018-02-27T06:27:26.333Z,30.75
2018-02-27T06:29:53.010Z,31.02
2018-02-27T06:32:18.804Z,31.17
2018-02-27T06:34:44.662Z,30.87
2018-02-27T06:37:10.456Z,30.85
2018-02-27T06:39:36.315Z,31.08
2018-02-27T06:44:45.854Z,30.83
2018-02-27T06:47:11.684Z,30.85
2018-02-27T06:49:37.516Z,30.82
2018-02-27T06:52:04.235Z,30.79
2018-02-27T06:54:30.059Z,31.05
2018-02-27T06:56:56.735Z,30.92
2018-02-27T06:59:22.559Z,31.06
2018-02-27T07:01:49.377Z,31.26
2018-02-27T07:04:15.213Z,31.08
2018-02-27T07:06:41.031Z,31.18
2018-02-27T07:09:06.842Z,31.26
2018-02-27T07:11:32.679Z,31.10
2018-02-27T07:13:58.515Z,31.45
2018-02-27T07:16:24.402Z,31.35
2018-02-27T07:18:50.246Z,31.21
2018-02-27T07:21:16.086Z,31.55
2018-02-27T07:23:41.897Z,31.46
2018-02-27T07:26:07.713Z,31.40
2018-02-27T07:28:34.390Z,31.14
2018-02-27T07:31:00.191Z,31.10
2018-02-27T07:33:26.004Z,31.25
2018-02-27T07:35:52.646Z,31.13
2018-02-27T07:38:19.315Z,30.95
2018-02-27T07:40:45.119Z,31.22
2018-02-27T07:43:11.810Z,31.65
2018-02-27T07:45:37.617Z,31.60
2018-02-27T07:48:03.425Z,31.31
2018-02-27T07:50:29.237Z,31.02
2018-02-27T07:52:55.048Z,31.17
2018-02-27T07:55:20.858Z,31.45
2018-02-27T07:57:46.662Z,31.20
2018-02-27T08:00:12.466Z,31.02
2018-02-27T08:02:39.329Z,30.83
2018-02-27T08:05:05.133Z,32.58
2018-02-27T08:07:31.334Z,32.42
2018-02-27T08:09:57.139Z,31.86
2018-02-27T08:12:22.938Z,32.07
2018-02-27T08:14:48.746Z,31.67
2018-02-27T08:17:14.558Z,31.18
2018-02-27T08:19:41.337Z,31.03
2018-02-27T08:22:07.143Z,30.97
2018-02-27T08:24:32.946Z,30.88
2018-02-27T08:26:59.642Z,30.81
2018-02-27T08:29:25.446Z,30.94
2018-02-27T08:31:51.254Z,31.15
2018-02-27T08:34:17.093Z,31.25
2018-02-27T08:36:42.897Z,31.01
2018-02-27T08:39:08.698Z,30.84
2018-02-27T08:41:35.494Z,30.67
2018-02-27T08:44:02.286Z,30.61
2018-02-27T08:46:35.050Z,30.55
2018-02-27T08:49:00.888Z,30.87
2018-02-27T08:51:26.699Z,30.67
2018-02-27T08:53:52.510Z,30.72
2018-02-27T08:56:18.318Z,30.51
2018-02-27T08:58:44.994Z,30.36
2018-02-27T09:01:10.846Z,30.47
2018-02-27T09:03:36.654Z,30.48
2018-02-27T09:06:02.458Z,30.20
2018-02-27T09:08:28.286Z,30.38
2018-02-27T09:10:54.090Z,30.37
2018-02-27T09:13:19.926Z,30.25
2018-02-27T09:15:45.737Z,30.37
2018-02-27T09:18:11.853Z,30.24
2018-02-27T09:20:38.508Z,30.05
2018-02-27T09:23:04.328Z,29.77
2018-02-27T09:25:30.147Z,29.73
2018-02-27T09:27:55.962Z,29.83
2018-02-27T09:30:22.625Z,29.56
2018-02-27T09:32:48.429Z,29.59
2018-02-27T09:35:14.271Z,29.86
2018-02-27T09:37:40.982Z,30.38
2018-02-27T09:40:07.752Z,31.21
2018-02-27T09:42:33.555Z,30.79
2018-02-27T09:45:00.330Z,30.45
2018-02-27T09:47:27.105Z,30.82
2018-02-27T09:49:52.911Z,30.44
2018-02-27T09:52:18.754Z,30.14
2018-02-27T09:54:45.512Z,29.87
2018-02-27T09:57:11.317Z,29.87
2018-02-27T09:59:37.126Z,29.96
2018-02-27T10:02:03.010Z,29.70
2018-02-27T10:04:29.775Z,29.80
2018-02-27T10:06:55.618Z,29.63
2018-02-27T10:09:22.359Z,29.56
2018-02-27T10:11:49.016Z,29.72
2018-02-27T10:14:15.628Z,29.63
2018-02-27T10:16:41.468Z,29.48
2018-02-27T10:19:08.270Z,29.58
2018-02-27T10:21:34.894Z,29.66
2018-02-27T10:24:01.666Z,29.60
2018-02-27T10:26:27.478Z,29.37
2018-02-27T10:28:53.320Z,29.30
2018-02-27T10:31:19.935Z,29.42
2018-02-27T10:33:45.769Z,29.50
2018-02-27T10:36:11.617Z,29.55
2018-02-27T10:38:37.458Z,29.44
2018-02-27T10:41:03.327Z,29.25
2018-02-27T10:43:29.147Z,28.71
2018-02-27T10:45:55.974Z,28.91
2018-02-27T10:48:21.786Z,29.12
2018-02-27T10:50:47.634Z,29.17
2018-02-27T10:53:13.468Z,28.87
2018-02-27T10:55:39.310Z,29.09
2018-02-27T10:58:06.058Z,28.98
2018-02-27T11:00:38.997Z,29.53
2018-02-27T11:03:05.655Z,29.13
2018-02-27T11:05:31.510Z,28.71
2018-02-27T11:07:57.313Z,28.93
2018-02-27T11:10:23.130Z,29.22
2018-02-27T11:12:48.935Z,29.12
2018-02-27T11:15:15.752Z,29.16
2018-02-27T11:17:42.570Z,28.91
2018-02-27T11:20:08.392Z,28.90
2018-02-27T11:22:35.088Z,28.94
2018-02-27T11:25:01.830Z,28.98
2018-02-27T11:27:28.526Z,28.93
2018-02-27T11:29:54.365Z,29.49
2018-02-27T11:32:20.169Z,29.14
2018-02-27T11:34:46.786Z,28.88
2018-02-27T11:37:13.611Z,29.01
2018-02-27T11:39:39.433Z,28.85
2018-02-27T11:42:05.245Z,29.03
2018-02-27T11:44:31.050Z,28.84
2018-02-27T11:46:57.698Z,29.11
2018-02-27T11:49:23.515Z,29.09
2018-02-27T11:51:49.321Z,29.13
2018-02-27T11:54:15.130Z,28.89
2018-02-27T11:56:40.935Z,28.77
2018-02-27T11:59:06.735Z,29.04
2018-02-27T12:01:32.549Z,29.27
2018-02-27T12:03:58.357Z,29.09
2018-02-27T12:06:24.173Z,29.17
2018-02-27T12:08:49.974Z,29.03
2018-02-27T12:11:15.847Z,29.13
2018-02-27T12:13:42.434Z,29.56
2018-02-27T12:16:08.277Z,29.51
2018-02-27T12:18:35.038Z,29.47
2018-02-27T12:21:00.870Z,29.26
2018-02-27T12:23:26.673Z,28.88
2018-02-27T12:25:52.513Z,29.30
2018-02-27T12:28:18.322Z,29.02
2018-02-27T12:30:44.126Z,28.92
2018-02-27T12:33:09.929Z,29.33
2018-02-27T12:35:36.622Z,29.02
2018-02-27T12:38:02.426Z,28.99
2018-02-27T12:40:29.278Z,29.44
2018-02-27T12:42:55.127Z,29.30
2018-02-27T12:45:20.930Z,29.13
2018-02-27T12:47:46.740Z,28.90
2018-02-27T12:50:12.546Z,28.86
2018-02-27T12:52:38.350Z,29.04
2018-02-27T12:55:04.159Z,29.07
2018-02-27T12:57:30.925Z,28.95
2018-02-27T12:59:56.766Z,28.85
2018-02-27T13:02:22.603Z,29.19
2018-02-27T13:04:48.461Z,28.80
2018-02-27T13:07:15.069Z,28.79
2018-02-27T13:09:40.875Z,29.66
2018-02-27T13:12:07.645Z,28.99
2018-02-27T13:14:34.365Z,29.34
2018-02-27T13:17:01.214Z,29.03
2018-02-27T13:19:27.028Z,28.94
2018-02-27T13:21:52.886Z,28.85
2018-02-27T13:24:19.570Z,28.98
2018-02-27T13:26:45.370Z,28.66
2018-02-27T13:29:11.174Z,28.98
2018-02-27T13:31:37.821Z,29.88
2018-02-27T13:34:04.634Z,29.78
2018-02-27T13:36:31.450Z,29.22
2018-02-27T13:38:57.312Z,29.09
2018-02-27T13:41:23.126Z,29.06
2018-02-27T13:43:49.833Z,29.02
2018-02-27T13:46:15.641Z,29.32
2018-02-27T13:48:45.911Z,29.39
2018-02-27T13:51:08.346Z,29.24
2018-02-27T13:53:34.151Z,29.66
2018-02-27T13:56:00.004Z,29.62
2018-02-27T13:58:25.810Z,29.20
2018-02-27T14:00:52.482Z,30.01
2018-02-27T14:03:18.336Z,29.59
2018-02-27T14:05:44.137Z,29.68
2018-02-27T14:08:10.892Z,29.29
2018-02-27T14:10:36.698Z,29.42
2018-02-27T14:13:03.420Z,29.41
2018-02-27T14:15:29.227Z,29.58
2018-02-27T14:17:55.902Z,29.83
2018-02-27T14:20:21.738Z,29.40
2018-02-27T14:22:48.339Z,30.15
2018-02-27T14:25:14.197Z,29.77
2018-02-27T14:27:40.005Z,29.78
2018-02-27T14:30:05.823Z,29.49
2018-02-27T14:32:32.522Z,29.53
2018-02-27T14:34:59.322Z,29.39
2018-02-27T14:37:26.102Z,29.29
2018-02-27T14:39:52.918Z,29.12
2018-02-27T14:42:19.773Z,29.56
2018-02-27T14:44:46.670Z,30.61
2018-02-27T14:47:13.334Z,29.79
2018-02-27T14:49:39.232Z,29.87
2018-02-27T14:52:05.942Z,29.62
2018-02-27T14:54:32.769Z,29.57
2018-02-27T14:56:59.449Z,29.70
2018-02-27T14:59:25.270Z,29.91
2018-02-27T15:01:51.085Z,29.27
2018-02-27T15:04:16.937Z,29.78
2018-02-27T15:06:43.709Z,29.91
2018-02-27T15:09:09.513Z,30.02
2018-02-27T15:11:35.319Z,29.76
2018-02-27T15:14:01.140Z,30.10
2018-02-27T15:16:26.983Z,30.41
2018-02-27T15:18:52.781Z,29.64
2018-02-27T15:21:18.632Z,29.97
2018-02-27T15:23:44.435Z,29.50
2018-02-27T15:26:10.235Z,29.60
2018-02-27T15:28:36.038Z,29.49
2018-02-27T15:31:01.842Z,29.89
2018-02-27T15:33:27.645Z,29.47
2018-02-27T15:35:53.528Z,29.48
2018-02-27T15:38:19.318Z,29.23
2018-02-27T15:40:45.162Z,30.08
2018-02-27T15:43:10.974Z,29.84
2018-02-27T15:45:37.783Z,29.86
2018-02-27T15:48:03.631Z,29.39
2018-02-27T15:50:29.435Z,29.75
2018-02-27T15:52:56.093Z,29.76
2018-02-27T15:55:21.899Z,29.53
2018-02-27T15:57:47.707Z,29.58
2018-02-27T16:00:14.583Z,29.53
2018-02-27T16:02:40.426Z,29.49
2018-02-27T16:05:06.272Z,29.88
2018-02-27T16:07:32.081Z,29.50
2018-02-27T16:09:57.917Z,29.70
2018-02-27T16:12:23.721Z,29.79
2018-02-27T16:14:49.563Z,29.96
2018-02-27T16:17:15.372Z,30.42
2018-02-27T16:19:42.123Z,29.92
2018-02-27T16:22:07.926Z,30.23
2018-02-27T16:24:33.741Z,30.07
2018-02-27T16:26:59.579Z,30.17
2018-02-27T16:29:25.387Z,30.81
2018-02-27T16:31:51.196Z,30.18
2018-02-27T16:34:17.161Z,30.04
2018-02-27T16:36:43.935Z,30.05
2018-02-27T16:39:09.806Z,29.85
2018-02-27T16:41:36.535Z,30.58
2018-02-27T16:44:02.342Z,30.30
2018-02-27T16:46:28.142Z,30.23
2018-02-27T16:48:53.945Z,29.96
2018-02-27T16:51:19.752Z,30.36
2018-02-27T16:53:45.599Z,30.07
2018-02-27T16:56:11.411Z,30.09
2018-02-27T16:58:37.249Z,30.00
2018-02-27T17:01:03.055Z,30.31
2018-02-27T17:03:28.964Z,30.44
2018-02-27T17:05:54.801Z,30.11
2018-02-27T17:08:20.687Z,30.20
2018-02-27T17:10:46.494Z,30.12
2018-02-27T17:13:13.138Z,30.23
2018-02-27T17:15:39.847Z,30.18
2018-02-27T17:18:05.691Z,30.41
2018-02-27T17:20:31.544Z,30.24
2018-02-27T17:22:57.438Z,30.22
2018-02-27T17:25:23.242Z,30.69
2018-02-27T17:27:49.053Z,30.56
2018-02-27T17:30:14.903Z,30.46
2018-02-27T17:32:41.678Z,30.77
2018-02-27T17:35:07.643Z,30.60
2018-02-27T17:37:33.487Z,30.65
2018-02-27T17:40:00.322Z,30.65
2018-02-27T17:42:27.191Z,30.95
2018-02-27T17:44:52.995Z,30.61
2018-02-27T17:47:18.810Z,30.47
2018-02-27T17:49:44.747Z,30.72
2018-02-27T17:52:10.562Z,30.57
2018-02-27T17:54:36.414Z,30.37
2018-02-27T17:57:03.195Z,30.50
2018-02-27T17:59:29.038Z,30.62
2018-02-27T18:01:54.907Z,30.41
2018-02-27T18:04:20.736Z,30.31
2018-02-27T18:06:46.551Z,30.44
2018-02-27T18:09:12.355Z,30.80
2018-02-27T18:11:38.157Z,30.02
2018-02-27T18:14:04.881Z,30.61
2018-02-27T18:16:31.626Z,30.71
2018-02-27T18:18:57.426Z,30.06
2018-02-27T18:21:23.339Z,30.69
2018-02-27T18:23:49.320Z,30.50
2018-02-27T18:26:15.162Z,30.79
2018-02-27T18:28:40.990Z,30.46
2018-02-27T18:31:06.834Z,30.89
2018-02-27T18:33:32.783Z,30.77
2018-02-27T18:35:58.586Z,30.68
2018-02-27T18:38:24.586Z,30.85
2018-02-27T18:40:50.401Z,30.68
2018-02-27T18:43:16.226Z,30.86
2018-02-27T18:45:42.031Z,30.66
2018-02-27T18:48:08.895Z,30.94
2018-02-27T18:50:34.704Z,31.10
2018-02-27T18:53:00.634Z,31.03
2018-02-27T18:55:26.447Z,31.39
2018-02-27T18:57:52.265Z,30.79
2018-02-27T19:00:18.061Z,31.21
2018-02-27T19:02:43.866Z,31.30
2018-02-27T19:05:09.747Z,31.41
2018-02-27T19:07:36.531Z,31.11
2018-02-27T19:10:02.346Z,30.83
2018-02-27T19:12:28.151Z,30.79
2018-02-27T19:15:01.969Z,31.08
2018-02-27T19:17:27.854Z,31.10
2018-02-27T19:19:53.692Z,31.15
2018-02-27T19:22:19.490Z,31.01
2018-02-27T19:24:45.368Z,30.61
2018-02-27T19:27:11.346Z,30.61
2018-02-27T19:29:37.154Z,30.35
2018-02-27T19:32:03.095Z,30.37
2018-02-27T19:34:48.398Z,30.33
2018-02-27T19:37:17.052Z,30.43
2018-02-27T19:39:46.650Z,30.65
2018-02-27T19:42:18.677Z,30.83
2018-02-27T19:44:55.257Z,30.72
2018-02-27T19:47:25.520Z,30.61
2018-02-27T19:49:51.443Z,30.66
2018-02-27T19:52:22.714Z,30.97
2018-02-27T19:54:51.492Z,30.92
2018-02-27T19:57:19.701Z,31.21
2018-02-27T19:59:47.028Z,30.67
2018-02-27T20:02:15.394Z,31.25
2018-02-27T20:04:43.629Z,31.00
2018-02-27T20:07:11.104Z,30.86
2018-02-27T20:09:38.264Z,31.00
2018-02-27T20:12:05.506Z,30.85
2018-02-27T20:14:35.358Z,30.93
2018-02-27T20:17:01.180Z,30.63
2018-02-27T20:19:27.027Z,30.74
2018-02-27T20:21:52.834Z,30.56
2018-02-27T20:24:20.486Z,30.54
2018-02-27T20:26:47.282Z,30.97
2018-02-27T20:29:19.918Z,30.95
2018-02-27T20:31:46.673Z,31.06
2018-02-27T20:34:12.478Z,31.11
2018-02-27T20:36:38.278Z,31.16
2018-02-27T20:39:10.215Z,30.79
2018-02-27T20:41:36.059Z,30.83
2018-02-27T20:44:01.871Z,30.97
2018-02-27T20:46:27.678Z,31.29
2018-02-27T20:48:53.648Z,30.71
2018-02-27T20:51:19.462Z,31.12
2018-02-27T20:53:45.279Z,31.03
2018-02-27T20:56:11.082Z,30.41
2018-02-27T20:58:36.943Z,30.38
2018-02-27T21:01:03.682Z,30.12
2018-02-27T21:03:29.483Z,30.41
2018-02-27T21:05:55.509Z,30.20
2018-02-27T21:08:22.259Z,30.20
2018-02-27T21:10:49.006Z,30.00
2018-02-27T21:13:15.824Z,30.18
2018-02-27T21:15:41.630Z,29.79
2018-02-27T21:18:07.474Z,30.47
2018-02-27T21:20:33.274Z,30.06
2018-02-27T21:22:59.182Z,30.05
2018-02-27T21:25:24.983Z,29.99
2018-02-27T21:27:50.926Z,30.17
2018-02-27T21:30:16.894Z,30.19
2018-02-27T21:32:42.882Z,30.19
2018-02-27T21:35:10.110Z,29.74
2018-02-27T21:37:36.046Z,29.66
2018-02-27T21:40:01.852Z,29.80
2018-02-27T21:42:27.702Z,29.86
2018-02-27T21:44:53.558Z,30.33
2018-02-27T21:47:19.358Z,29.78
2018-02-27T21:49:45.398Z,29.89
2018-02-27T21:52:11.202Z,29.63
2018-02-27T21:54:37.013Z,30.08
2018-02-27T21:57:02.910Z,29.55
2018-02-27T21:59:28.709Z,29.95
2018-02-27T22:01:54.589Z,29.57
2018-02-27T22:04:20.486Z,29.79
2018-02-27T22:06:46.293Z,29.64
2018-02-27T22:09:12.282Z,29.46
2018-02-27T22:11:38.098Z,29.46
2018-02-27T22:14:03.903Z,29.23
2018-02-27T22:16:29.709Z,29.33
2018-02-27T22:18:55.564Z,29.18
2018-02-27T22:21:21.375Z,29.36
2018-02-27T22:23:47.189Z,29.45
2018-02-27T22:26:12.989Z,29.32
2018-02-27T22:28:38.794Z,29.71
2018-02-27T22:31:04.602Z,29.41
2018-02-27T22:33:30.410Z,29.44
2018-02-27T22:35:57.029Z,29.42
2018-02-27T22:38:22.830Z,29.48
2018-02-27T22:40:48.671Z,29.95
2018-02-27T22:43:14.502Z,29.74
2018-02-27T22:45:40.322Z,29.49
2018-02-27T22:48:06.122Z,29.54
2018-02-27T22:50:38.934Z,29.62
2018-02-27T22:53:04.740Z,29.41
2018-02-27T22:55:30.546Z,30.00
2018-02-27T22:57:56.359Z,29.95
2018-02-27T23:00:28.278Z,30.17
2018-02-27T23:02:54.089Z,29.78
2018-02-27T23:05:19.890Z,29.41
2018-02-27T23:07:45.694Z,29.79
2018-02-27T23:10:15.231Z,30.02
2018-02-27T23:12:45.448Z,29.41
2018-02-27T23:15:11.321Z,29.83
2018-02-27T23:17:46.127Z,30.18
2018-02-27T23:20:23.595Z,30.52
2018-02-27T23:22:49.427Z,29.63
2018-02-27T23:25:20.084Z,29.57
2018-02-27T23:27:46.119Z,30.31
2018-02-27T23:30:12.310Z,29.82
2018-02-27T23:32:41.300Z,29.81
2018-02-27T23:35:09.302Z,29.89
2018-02-27T23:37:35.991Z,29.98
2018-02-27T23:40:01.829Z,29.74
2018-02-27T23:42:28.489Z,29.63
2018-02-27T23:44:55.342Z,29.73
2018-02-27T23:47:28.172Z,29.68
2018-02-27T23:49:54.016Z,30.05
2018-02-27T23:52:19.822Z,30.12
2018-02-27T23:54:45.623Z,29.77
2018-02-27T23:57:12.311Z,30.24
2018-02-27T23:59:38.118Z,29.99
